Time;durP1;ratioP1;P1;durP2;ratioP2;P2;SDS_P1;SDS_P2;PMS_P1;PMS_P2;Temp;Humidity;BMP_temperature;BMP_pressure;BME280_temperature;BME280_humidity;BME280_pressure;Samples;Min_cycle;Max_cycle;Signal;HPM_P1;HPM_P2
2022/03/10 00:02:07;;;;;;;189.65;93.85;;;;;;;;;;10270782;28;20060;-57
2022/03/10 00:07:06;;;;;;;78.57;42.78;;;;;;;;;;10273739;28;20060;-57
2022/03/10 00:12:05;;;;;;;66.88;37.60;;;;;;;;;;10274251;28;20073;-57
2022/03/10 00:17:04;;;;;;;62.35;36.78;;;;;;;;;;10273908;28;20052;-57
2022/03/10 00:22:03;;;;;;;59.67;37.42;;;;;;;;;;10274282;28;20305;-56
2022/03/10 00:27:01;;;;;;;58.03;34.63;;;;;;;;;;10273269;28;20073;-57
2022/03/10 00:32:01;;;;;;;52.28;32.88;;;;;;;;;;10273949;28;20073;-56
2022/03/10 00:37:01;;;;;;;64.78;37.33;;;;;;;;;;10269159;28;20081;-56
2022/03/10 00:41:59;;;;;;;87.03;55.42;;;;;;;;;;10290501;28;20067;-55
2022/03/10 00:46:57;;;;;;;63.10;39.35;;;;;;;;;;10312917;28;20174;-56
2022/03/10 00:51:56;;;;;;;70.90;41.33;;;;;;;;;;10312046;28;20076;-55
2022/03/10 00:56:55;;;;;;;51.47;32.20;;;;;;;;;;10301564;28;20072;-57
2022/03/10 01:01:55;;;;;;;40.08;27.60;;;;;;;;;;10268225;28;20077;-56
2022/03/10 01:06:54;;;;;;;45.08;27.30;;;;;;;;;;10288437;28;20493;-55
2022/03/10 01:11:53;;;;;;;77.97;37.22;;;;;;;;;;10267813;28;20509;-55
2022/03/10 01:16:52;;;;;;;102.50;48.67;;;;;;;;;;10267482;28;20115;-57
2022/03/10 01:21:51;;;;;;;50.83;28.25;;;;;;;;;;10261129;28;20076;-56
2022/03/10 01:26:49;;;;;;;33.05;21.30;;;;;;;;;;10267891;28;20077;-58
2022/03/10 01:31:48;;;;;;;25.20;17.92;;;;;;;;;;10272427;28;20049;-55
2022/03/10 01:36:47;;;;;;;26.63;15.15;;;;;;;;;;10275600;28;20088;-55
2022/03/10 01:41:46;;;;;;;23.83;16.27;;;;;;;;;;10275125;28;20087;-55
2022/03/10 01:46:44;;;;;;;22.65;15.57;;;;;;;;;;10274125;28;20076;-55
2022/03/10 01:51:43;;;;;;;21.75;14.75;;;;;;;;;;10276192;28;20560;-55
2022/03/10 01:56:43;;;;;;;20.33;13.95;;;;;;;;;;10273024;28;20073;-55
2022/03/10 02:01:42;;;;;;;20.00;14.20;;;;;;;;;;10277856;28;20084;-54
2022/03/10 02:06:40;;;;;;;22.38;15.45;;;;;;;;;;10279325;28;20068;-56
2022/03/10 02:11:39;;;;;;;24.88;15.85;;;;;;;;;;10276415;28;20472;-56
2022/03/10 02:21:57;;;;;;;22.92;17.08;;;;;;;;;;10277271;28;20071;-55
2022/03/10 02:26:57;;;;;;;23.13;16.15;;;;;;;;;;10290232;28;20045;-54
2022/03/10 02:31:55;;;;;;;22.05;16.90;;;;;;;;;;10293786;28;20502;-52
2022/03/10 02:36:53;;;;;;;21.33;15.13;;;;;;;;;;10273627;28;20105;-56
2022/03/10 02:41:52;;;;;;;20.35;15.23;;;;;;;;;;10272099;28;20079;-55
2022/03/10 02:46:52;;;;;;;17.38;12.25;;;;;;;;;;10272279;28;20061;-55
2022/03/10 02:51:53;;;;;;;19.02;13.13;;;;;;;;;;10271836;28;20081;-54
2022/03/10 02:57:08;;;;;;;17.63;12.48;;;;;;;;;;10284723;28;20532;-55
2022/03/10 03:02:08;;;;;;;18.85;13.73;;;;;;;;;;10285379;28;20079;-55
2022/03/10 03:07:06;;;;;;;38.13;23.20;;;;;;;;;;10271031;28;20068;-56
2022/03/10 03:12:05;;;;;;;19.00;15.07;;;;;;;;;;10271620;28;20080;-53
2022/03/10 03:17:04;;;;;;;17.08;12.90;;;;;;;;;;10271562;28;20076;-55
2022/03/10 03:22:04;;;;;;;22.67;16.52;;;;;;;;;;10275533;28;20045;-53
2022/03/10 03:27:02;;;;;;;20.08;15.48;;;;;;;;;;10276526;28;20048;-55
2022/03/10 03:32:01;;;;;;;28.60;17.50;;;;;;;;;;10269545;28;20485;-54
2022/03/10 03:36:59;;;;;;;25.13;18.85;;;;;;;;;;10270677;28;20083;-55
2022/03/10 03:41:59;;;;;;;36.83;25.45;;;;;;;;;;10286232;28;20463;-54
2022/03/10 03:46:57;;;;;;;39.63;27.63;;;;;;;;;;10286967;28;20069;-56
2022/03/10 03:51:55;;;;;;;25.88;19.73;;;;;;;;;;10285602;28;20502;-55
2022/03/10 03:56:54;;;;;;;25.13;18.65;;;;;;;;;;10289327;28;20530;-54
2022/03/10 04:01:53;;;;;;;35.13;21.00;;;;;;;;;;10270252;28;20084;-55
2022/03/10 04:06:52;;;;;;;23.23;18.05;;;;;;;;;;10269885;28;20091;-54
2022/03/10 04:11:50;;;;;;;26.33;19.05;;;;;;;;;;10272546;28;20070;-56
2022/03/10 04:16:49;;;;;;;31.38;22.48;;;;;;;;;;10274357;28;20079;-55
2022/03/10 04:21:50;;;;;;;38.75;24.67;;;;;;;;;;10264071;28;20072;-55
2022/03/10 04:26:49;;;;;;;46.53;28.98;;;;;;;;;;10273440;28;20049;-56
2022/03/10 04:31:50;;;;;;;35.47;27.65;;;;;;;;;;10268243;28;20033;-57
2022/03/10 04:36:50;;;;;;;32.70;20.65;;;;;;;;;;10273681;28;20072;-55
2022/03/10 04:41:48;;;;;;;30.05;22.98;;;;;;;;;;10269666;28;20076;-55
2022/03/10 04:46:46;;;;;;;62.25;41.38;;;;;;;;;;10268855;28;20073;-56
2022/03/10 04:51:45;;;;;;;41.08;29.27;;;;;;;;;;10268131;28;20076;-56
2022/03/10 04:56:44;;;;;;;52.53;36.83;;;;;;;;;;10265343;28;20084;-56
2022/03/10 05:01:43;;;;;;;308.08;167.40;;;;;;;;;;10267891;28;20072;-56
2022/03/10 05:06:42;;;;;;;77.45;53.35;;;;;;;;;;10275735;28;20060;-56
2022/03/10 05:11:40;;;;;;;45.85;31.35;;;;;;;;;;10269812;28;20495;-52
2022/03/10 05:16:40;;;;;;;89.80;46.25;;;;;;;;;;10274309;28;20124;-55
2022/03/10 05:21:38;;;;;;;75.93;43.85;;;;;;;;;;10276210;28;20061;-55
2022/03/10 05:26:37;;;;;;;150.55;74.00;;;;;;;;;;10280707;28;20041;-54
2022/03/10 05:31:35;;;;;;;122.22;59.70;;;;;;;;;;10277232;28;20466;-53
2022/03/10 05:36:36;;;;;;;68.47;36.30;;;;;;;;;;10296431;28;20479;-54
2022/03/10 05:41:35;;;;;;;64.03;38.50;;;;;;;;;;10282648;28;20079;-54
2022/03/10 05:46:33;;;;;;;36.30;22.27;;;;;;;;;;10278942;28;20073;-51
2022/03/10 05:51:32;;;;;;;33.28;21.23;;;;;;;;;;10265877;28;20087;-53
2022/03/10 05:56:32;;;;;;;30.38;21.75;;;;;;;;;;10265963;28;20103;-55
2022/03/10 06:01:30;;;;;;;32.38;21.80;;;;;;;;;;10275406;28;20104;-53
2022/03/10 06:06:29;;;;;;;35.47;25.17;;;;;;;;;;10272869;28;20080;-53
2022/03/10 06:11:27;;;;;;;33.78;24.60;;;;;;;;;;10272110;28;20725;-49
2022/03/10 06:16:27;;;;;;;75.95;45.95;;;;;;;;;;10270577;28;20099;-54
2022/03/10 06:21:26;;;;;;;45.50;29.25;;;;;;;;;;10259000;28;20422;-55
2022/03/10 06:26:25;;;;;;;28.40;20.15;;;;;;;;;;10277413;28;20072;-54
2022/03/10 06:31:24;;;;;;;28.15;21.27;;;;;;;;;;10265089;28;20419;-54
2022/03/10 06:36:24;;;;;;;36.95;23.50;;;;;;;;;;10261103;28;20075;-55
2022/03/10 06:41:23;;;;;;;30.58;23.40;;;;;;;;;;10265387;28;20073;-56
2022/03/10 06:46:21;;;;;;;34.15;21.05;;;;;;;;;;10282050;28;20075;-55
2022/03/10 06:51:19;;;;;;;30.45;18.85;;;;;;;;;;10296861;28;20079;-53
2022/03/10 06:56:19;;;;;;;17.80;13.82;;;;;;;;;;10268857;28;20094;-55
2022/03/10 07:01:19;;;;;;;25.58;18.42;;;;;;;;;;10276510;28;20083;-55
2022/03/10 07:06:17;;;;;;;20.10;13.07;;;;;;;;;;10266598;28;20091;-54
2022/03/10 07:11:16;;;;;;;19.35;13.85;;;;;;;;;;10267370;28;20138;-55
2022/03/10 07:16:15;;;;;;;27.35;14.63;;;;;;;;;;10266093;28;20495;-54
2022/03/10 07:21:14;;;;;;;23.42;14.93;;;;;;;;;;10267165;28;20080;-55
2022/03/10 07:26:12;;;;;;;23.90;15.57;;;;;;;;;;10264169;28;20073;-53
2022/03/10 07:31:11;;;;;;;68.70;47.20;;;;;;;;;;10269091;28;20512;-52
2022/03/10 07:36:11;;;;;;;39.03;22.55;;;;;;;;;;10269658;28;20110;-56
2022/03/10 07:41:09;;;;;;;21.95;17.83;;;;;;;;;;10271982;28;20088;-54
2022/03/10 07:46:07;;;;;;;47.40;22.25;;;;;;;;;;10270509;28;20045;-55
2022/03/10 07:51:13;;;;;;;27.83;15.32;;;;;;;;;;10313093;27;20387;-55
2022/03/10 07:56:12;;;;;;;24.27;14.57;;;;;;;;;;10307896;28;20426;-56
2022/03/10 08:01:10;;;;;;;39.35;20.92;;;;;;;;;;10306863;28;20076;-56
2022/03/10 08:06:09;;;;;;;41.92;22.08;;;;;;;;;;10306122;28;20049;-52
2022/03/10 08:11:08;;;;;;;35.75;20.65;;;;;;;;;;10307127;28;20089;-54
2022/03/10 08:16:07;;;;;;;26.83;18.73;;;;;;;;;;10306882;28;20497;-53
2022/03/10 08:21:05;;;;;;;21.95;13.57;;;;;;;;;;10306411;28;20095;-54
2022/03/10 08:26:03;;;;;;;25.38;16.25;;;;;;;;;;10306970;28;20069;-54
2022/03/10 08:31:04;;;;;;;19.80;15.52;;;;;;;;;;10306941;28;20076;-52
2022/03/10 08:36:03;;;;;;;27.42;17.50;;;;;;;;;;10305412;28;20076;-54
2022/03/10 08:41:01;;;;;;;29.42;20.27;;;;;;;;;;10305305;28;20036;-53
2022/03/10 08:46:01;;;;;;;20.30;15.38;;;;;;;;;;10299887;28;20506;-52
2022/03/10 08:51:02;;;;;;;29.17;21.38;;;;;;;;;;10303617;28;20096;-54
2022/03/10 08:56:00;;;;;;;23.10;17.60;;;;;;;;;;10304265;28;20497;-55
2022/03/10 09:00:58;;;;;;;28.35;19.35;;;;;;;;;;10287471;28;20076;-52
2022/03/10 09:06:18;;;;;;;28.40;17.85;;;;;;;;;;10279464;28;20506;-52
2022/03/10 09:11:17;;;;;;;26.33;17.98;;;;;;;;;;10280267;28;20106;-53
2022/03/10 09:16:15;;;;;;;22.40;17.17;;;;;;;;;;10280651;28;20057;-51
2022/03/10 09:21:14;;;;;;;18.80;14.07;;;;;;;;;;10280421;28;20076;-55
2022/03/10 09:26:15;;;;;;;22.75;16.42;;;;;;;;;;10279787;28;20045;-56
2022/03/10 09:31:15;;;;;;;24.85;16.42;;;;;;;;;;10279465;28;20087;-54
2022/03/10 09:36:14;;;;;;;31.60;19.50;;;;;;;;;;10279930;28;20426;-55
2022/03/10 09:41:14;;;;;;;46.25;27.77;;;;;;;;;;10280060;28;20077;-53
2022/03/10 09:46:13;;;;;;;50.10;35.50;;;;;;;;;;10279035;28;20422;-55
2022/03/10 09:51:11;;;;;;;35.35;21.35;;;;;;;;;;10278819;28;20076;-54
2022/03/10 09:56:09;;;;;;;18.42;13.90;;;;;;;;;;10278897;28;20080;-55
2022/03/10 10:01:11;;;;;;;20.27;13.15;;;;;;;;;;10278674;28;20072;-57
2022/03/10 10:06:11;;;;;;;16.55;12.73;;;;;;;;;;10278815;28;20040;-56
2022/03/10 10:11:15;;;;;;;14.57;10.70;;;;;;;;;;10276963;28;20079;-51
2022/03/10 10:16:17;;;;;;;15.65;11.52;;;;;;;;;;10277750;28;20076;-55
2022/03/10 10:21:20;;;;;;;15.70;11.88;;;;;;;;;;10277481;28;20491;-52
2022/03/10 10:26:20;;;;;;;22.17;16.05;;;;;;;;;;10277293;28;20060;-55
2022/03/10 10:31:22;;;;;;;24.20;18.13;;;;;;;;;;10277625;28;20084;-55
2022/03/10 10:36:24;;;;;;;15.25;12.52;;;;;;;;;;10277425;28;20045;-54
2022/03/10 10:41:24;;;;;;;10.40;9.30;;;;;;;;;;10276680;28;20426;-53
2022/03/10 10:46:24;;;;;;;20.48;15.40;;;;;;;;;;10276493;28;20072;-54
2022/03/10 10:51:32;;;;;;;22.08;15.68;;;;;;;;;;10276265;28;20086;-54
2022/03/10 10:56:30;;;;;;;19.42;13.88;;;;;;;;;;10276644;28;20056;-54
2022/03/10 11:01:31;;;;;;;29.10;19.23;;;;;;;;;;10275943;28;20052;-49
2022/03/10 11:06:30;;;;;;;38.00;25.77;;;;;;;;;;10276100;28;20068;-54
2022/03/10 11:11:30;;;;;;;24.10;19.00;;;;;;;;;;10275918;28;20148;-55
2022/03/10 11:16:32;;;;;;;27.52;17.27;;;;;;;;;;10276433;28;20041;-51
2022/03/10 11:21:42;;;;;;;14.20;9.57;;;;;;;;;;10275910;28;20076;-54
2022/03/10 11:26:44;;;;;;;11.35;8.80;;;;;;;;;;10275910;28;20045;-54
2022/03/10 11:31:44;;;;;;;19.27;13.77;;;;;;;;;;10275346;28;20073;-53
2022/03/10 11:36:42;;;;;;;20.00;13.35;;;;;;;;;;10275286;28;20064;-53
2022/03/10 11:41:45;;;;;;;26.60;20.90;;;;;;;;;;10275737;28;20076;-54
2022/03/10 11:46:53;;;;;;;22.25;18.08;;;;;;;;;;10275340;28;20152;-55
2022/03/10 11:51:52;;;;;;;20.70;16.27;;;;;;;;;;10275432;28;20088;-55
2022/03/10 11:57:01;;;;;;;20.95;16.70;;;;;;;;;;10275029;28;20049;-55
2022/03/10 12:02:01;;;;;;;25.25;17.85;;;;;;;;;;10274950;28;20041;-56
2022/03/10 12:07:00;;;;;;;21.40;17.75;;;;;;;;;;10275067;28;20528;-53
2022/03/10 12:12:14;;;;;;;44.95;31.00;;;;;;;;;;10275085;28;20085;-57
2022/03/10 12:17:52;;;;;;;19.13;17.10;;;;;;;;;;10274862;28;20445;-55
2022/03/10 12:23:10;;;;;;;14.90;11.55;;;;;;;;;;10275078;28;20041;-56
2022/03/10 12:28:09;;;;;;;12.30;11.00;;;;;;;;;;10274649;28;20147;-56
2022/03/10 12:33:09;;;;;;;19.75;15.90;;;;;;;;;;10274524;28;20064;-56
2022/03/10 12:38:07;;;;;;;16.10;12.38;;;;;;;;;;10282355;28;20053;-53
2022/03/10 12:43:07;;;;;;;16.10;13.65;;;;;;;;;;10281813;28;20087;-53
2022/03/10 12:48:10;;;;;;;12.52;9.95;;;;;;;;;;10281404;28;20084;-52
2022/03/10 12:53:13;;;;;;;15.35;13.02;;;;;;;;;;10281509;28;20080;-56
2022/03/10 12:58:11;;;;;;;23.05;16.40;;;;;;;;;;10281119;28;20083;-56
2022/03/10 13:03:10;;;;;;;15.48;12.52;;;;;;;;;;10280995;28;20073;-54
2022/03/10 13:08:12;;;;;;;15.77;12.57;;;;;;;;;;10281093;28;20080;-55
2022/03/10 13:13:27;;;;;;;15.60;12.00;;;;;;;;;;10280188;28;20080;-55
2022/03/10 13:18:25;;;;;;;38.23;31.77;;;;;;;;;;10280509;28;20399;-55
2022/03/10 13:23:25;;;;;;;15.60;13.35;;;;;;;;;;10280258;28;20088;-55
2022/03/10 13:28:25;;;;;;;30.23;17.50;;;;;;;;;;10279542;28;20040;-54
2022/03/10 13:33:25;;;;;;;11.82;9.88;;;;;;;;;;10280248;28;20041;-51
2022/03/10 13:38:25;;;;;;;59.63;31.83;;;;;;;;;;10279782;28;20495;-56
2022/03/10 13:43:27;;;;;;;106.20;41.28;;;;;;;;;;10279830;28;20410;-56
2022/03/10 13:48:26;;;;;;;46.28;27.55;;;;;;;;;;10278842;28;20103;-56
2022/03/10 13:53:27;;;;;;;21.52;14.57;;;;;;;;;;10279304;28;20095;-55
2022/03/10 13:58:27;;;;;;;28.35;19.65;;;;;;;;;;10278946;28;20094;-56
2022/03/10 14:03:25;;;;;;;38.47;24.10;;;;;;;;;;10278581;28;20049;-52
2022/03/10 14:08:24;;;;;;;34.85;20.48;;;;;;;;;;10278722;28;20401;-51
2022/03/10 14:13:22;;;;;;;22.40;15.52;;;;;;;;;;10278608;28;20076;-53
2022/03/10 14:18:22;;;;;;;31.17;18.10;;;;;;;;;;10278175;28;20086;-49
2022/03/10 14:23:21;;;;;;;25.73;16.13;;;;;;;;;;10278163;28;20045;-52
2022/03/10 14:28:26;;;;;;;25.77;15.68;;;;;;;;;;10277796;28;20072;-50
2022/03/10 14:33:28;;;;;;;56.75;32.53;;;;;;;;;;10277884;28;20084;-51
2022/03/10 14:38:27;;;;;;;56.90;28.05;;;;;;;;;;10277678;28;20468;-53
2022/03/10 14:43:28;;;;;;;44.25;26.15;;;;;;;;;;10277566;28;20060;-48
2022/03/10 14:48:28;;;;;;;40.75;25.63;;;;;;;;;;10276201;28;20080;-48
2022/03/10 14:53:26;;;;;;;30.35;21.42;;;;;;;;;;10276915;28;20544;-54
2022/03/10 14:58:25;;;;;;;28.70;18.35;;;;;;;;;;10275968;28;20084;-52
2022/03/10 15:03:23;;;;;;;27.50;15.60;;;;;;;;;;10276284;28;20041;-53
2022/03/10 15:08:23;;;;;;;29.20;17.58;;;;;;;;;;10275952;28;20478;-51
2022/03/10 15:13:22;;;;;;;33.00;19.58;;;;;;;;;;10276273;28;20083;-53
2022/03/10 15:18:20;;;;;;;44.53;25.42;;;;;;;;;;10275648;28;20045;-52
2022/03/10 15:23:19;;;;;;;20.02;13.95;;;;;;;;;;10274924;28;20045;-50
2022/03/10 15:28:18;;;;;;;24.67;17.23;;;;;;;;;;10275629;28;20088;-50
2022/03/10 15:33:17;;;;;;;34.80;22.75;;;;;;;;;;10275520;28;20540;-53
2022/03/10 15:38:16;;;;;;;24.05;14.90;;;;;;;;;;10275261;28;20045;-53
2022/03/10 15:43:14;;;;;;;26.10;19.98;;;;;;;;;;10274632;28;20071;-55
2022/03/10 15:48:15;;;;;;;45.78;27.10;;;;;;;;;;10274756;28;20080;-51
2022/03/10 15:53:14;;;;;;;19.77;11.23;;;;;;;;;;10275130;28;20087;-53
2022/03/10 15:58:14;;;;;;;30.73;17.65;;;;;;;;;;10274877;28;20474;-52
2022/03/10 16:03:12;;;;;;;25.52;16.38;;;;;;;;;;10275341;28;20180;-53
2022/03/10 16:08:12;;;;;;;61.55;38.63;;;;;;;;;;10274857;28;20068;-51
2022/03/10 16:13:10;;;;;;;50.22;26.25;;;;;;;;;;10282814;28;20076;-51
2022/03/10 16:18:09;;;;;;;175.45;91.18;;;;;;;;;;10282569;28;20073;-52
2022/03/10 16:23:08;;;;;;;52.22;31.50;;;;;;;;;;10282771;28;20448;-51
2022/03/10 16:28:09;;;;;;;88.20;45.67;;;;;;;;;;10282794;28;20065;-51
2022/03/10 16:33:07;;;;;;;56.25;34.95;;;;;;;;;;10281994;28;20073;-51
2022/03/10 16:38:05;;;;;;;97.82;48.30;;;;;;;;;;10281782;28;20076;-51
2022/03/10 16:43:04;;;;;;;132.43;73.00;;;;;;;;;;10282041;28;20073;-52
2022/03/10 16:48:04;;;;;;;53.85;34.10;;;;;;;;;;10280935;28;20080;-53
2022/03/10 16:53:03;;;;;;;41.85;24.75;;;;;;;;;;10280109;28;20305;-51
2022/03/10 16:58:04;;;;;;;65.45;38.53;;;;;;;;;;10280628;28;20056;-53
2022/03/10 17:03:04;;;;;;;48.35;27.35;;;;;;;;;;10280913;28;20052;-53
2022/03/10 17:08:03;;;;;;;39.00;24.65;;;;;;;;;;10280996;28;20081;-50
2022/03/10 17:13:02;;;;;;;66.05;38.15;;;;;;;;;;10280549;28;20076;-51
2022/03/10 17:18:01;;;;;;;28.55;16.75;;;;;;;;;;10280319;28;20065;-54
2022/03/10 17:23:01;;;;;;;31.73;19.02;;;;;;;;;;10279593;28;20099;-50
2022/03/10 17:27:59;;;;;;;64.15;35.60;;;;;;;;;;10279183;28;20044;-52
2022/03/10 17:32:58;;;;;;;39.63;25.60;;;;;;;;;;10279776;28;20083;-52
2022/03/10 17:37:56;;;;;;;28.90;19.55;;;;;;;;;;10279402;28;20567;-52
2022/03/10 17:42:56;;;;;;;34.78;21.40;;;;;;;;;;10279363;28;20045;-53
2022/03/10 17:47:54;;;;;;;44.03;23.30;;;;;;;;;;10278568;28;20076;-54
2022/03/10 17:52:52;;;;;;;29.73;18.42;;;;;;;;;;10278954;28;20068;-52
2022/03/10 17:57:51;;;;;;;52.72;31.02;;;;;;;;;;10279069;28;20076;-53
2022/03/10 18:02:56;;;;;;;64.40;43.17;;;;;;;;;;10278449;28;20405;-52
2022/03/10 18:07:57;;;;;;;54.30;37.92;;;;;;;;;;10278415;28;20049;-53
2022/03/10 18:12:55;;;;;;;51.05;34.83;;;;;;;;;;10277995;28;20065;-52
2022/03/10 18:17:55;;;;;;;43.55;26.75;;;;;;;;;;10277692;28;20045;-53
2022/03/10 18:22:54;;;;;;;89.47;50.60;;;;;;;;;;10265478;28;20072;-49
2022/03/10 18:27:52;;;;;;;30.83;21.20;;;;;;;;;;10267511;28;20064;-51
2022/03/10 18:32:50;;;;;;;20.77;13.10;;;;;;;;;;10257749;28;20076;-52
2022/03/10 18:37:50;;;;;;;20.35;16.52;;;;;;;;;;10267141;28;20069;-52
2022/03/10 18:42:48;;;;;;;20.65;14.40;;;;;;;;;;10252780;28;20072;-53
2022/03/10 18:47:48;;;;;;;22.92;13.65;;;;;;;;;;10250887;28;20544;-52
2022/03/10 18:52:53;;;;;;;22.80;15.60;;;;;;;;;;10248917;28;20524;-53
2022/03/10 18:57:52;;;;;;;22.05;13.98;;;;;;;;;;10252038;28;20065;-49
2022/03/10 19:02:51;;;;;;;22.73;14.02;;;;;;;;;;10261706;28;20083;-51
2022/03/10 19:07:49;;;;;;;31.73;20.10;;;;;;;;;;10257459;28;20469;-54
2022/03/10 19:12:49;;;;;;;57.47;28.33;;;;;;;;;;10258121;28;20141;-50
2022/03/10 19:17:47;;;;;;;42.40;22.67;;;;;;;;;;10254419;28;20084;-50
2022/03/10 19:22:50;;;;;;;19.35;12.38;;;;;;;;;;10242845;28;20076;-49
2022/03/10 19:27:50;;;;;;;33.65;20.02;;;;;;;;;;10236587;28;20502;-51
2022/03/10 19:32:48;;;;;;;57.60;27.95;;;;;;;;;;10251542;28;20490;-50
2022/03/10 19:37:48;;;;;;;64.32;30.45;;;;;;;;;;10257315;28;20073;-52
2022/03/10 19:42:51;;;;;;;51.88;29.00;;;;;;;;;;10250358;28;20081;-54
2022/03/10 19:47:51;;;;;;;45.20;26.85;;;;;;;;;;10258460;28;20463;-53
2022/03/10 19:52:49;;;;;;;30.45;20.60;;;;;;;;;;10258327;28;20476;-53
2022/03/10 19:57:48;;;;;;;25.95;14.40;;;;;;;;;;10244836;28;20069;-52
2022/03/10 20:02:48;;;;;;;29.23;17.38;;;;;;;;;;10247238;28;20087;-51
2022/03/10 20:07:47;;;;;;;20.08;14.77;;;;;;;;;;10261003;28;20063;-47
2022/03/10 20:12:46;;;;;;;40.25;23.17;;;;;;;;;;10254986;28;20075;-54
2022/03/10 20:17:44;;;;;;;21.80;13.60;;;;;;;;;;10249099;28;20060;-54
2022/03/10 20:22:44;;;;;;;25.88;16.23;;;;;;;;;;10242311;28;20068;-54
2022/03/10 20:27:44;;;;;;;27.20;13.65;;;;;;;;;;10233811;28;20050;-52
2022/03/10 20:32:42;;;;;;;18.90;12.38;;;;;;;;;;10233889;28;20088;-54
2022/03/10 20:37:40;;;;;;;22.55;15.75;;;;;;;;;;10246720;28;20399;-52
2022/03/10 20:42:40;;;;;;;17.50;11.50;;;;;;;;;;10233240;28;20475;-53
2022/03/10 20:47:41;;;;;;;49.15;23.05;;;;;;;;;;10232509;28;20071;-53
2022/03/10 20:52:41;;;;;;;27.15;18.70;;;;;;;;;;10232703;28;20079;-51
2022/03/10 20:57:43;;;;;;;18.60;12.40;;;;;;;;;;10261421;28;20553;-52
2022/03/10 21:02:45;;;;;;;21.88;13.80;;;;;;;;;;10245945;28;20073;-52
2022/03/10 21:07:47;;;;;;;39.70;20.98;;;;;;;;;;10240939;28;20084;-51
2022/03/10 21:12:47;;;;;;;52.83;27.90;;;;;;;;;;10238757;28;20096;-47
2022/03/10 21:17:49;;;;;;;52.88;25.10;;;;;;;;;;10246267;28;20042;-52
2022/03/10 21:22:51;;;;;;;51.67;26.20;;;;;;;;;;10245442;28;20069;-53
2022/03/10 21:27:51;;;;;;;19.00;10.48;;;;;;;;;;10239454;28;20466;-51
2022/03/10 21:32:55;;;;;;;19.50;13.05;;;;;;;;;;10239430;28;20080;-56
2022/03/10 21:37:53;;;;;;;20.77;14.88;;;;;;;;;;10239343;28;20049;-56
2022/03/10 21:42:53;;;;;;;18.40;12.13;;;;;;;;;;10261467;28;20528;-51
2022/03/10 21:47:51;;;;;;;22.85;13.88;;;;;;;;;;10259054;28;20083;-54
2022/03/10 21:52:51;;;;;;;16.08;10.10;;;;;;;;;;10258851;28;20064;-53
2022/03/10 21:57:49;;;;;;;14.13;9.40;;;;;;;;;;10255392;28;20061;-54
2022/03/10 22:02:47;;;;;;;15.40;12.68;;;;;;;;;;10257112;28;20037;-49
2022/03/10 22:07:46;;;;;;;15.50;9.75;;;;;;;;;;10254633;28;20037;-53
2022/03/10 22:12:47;;;;;;;13.02;9.07;;;;;;;;;;10257701;28;20512;-51
2022/03/10 22:17:45;;;;;;;18.17;11.57;;;;;;;;;;10256410;28;20042;-47
2022/03/10 22:22:43;;;;;;;13.75;9.13;;;;;;;;;;10257450;28;20037;-52
2022/03/10 22:27:42;;;;;;;15.52;10.52;;;;;;;;;;10255429;28;20060;-51
2022/03/10 22:32:41;;;;;;;23.23;12.40;;;;;;;;;;10263295;28;20083;-54
2022/03/10 22:37:40;;;;;;;12.73;8.93;;;;;;;;;;10277278;28;20072;-52
2022/03/10 22:42:38;;;;;;;16.17;10.68;;;;;;;;;;10277056;28;20072;-53
2022/03/10 22:47:41;;;;;;;39.40;17.67;;;;;;;;;;10275988;28;20056;-52
2022/03/10 22:57:56;;;;;;;18.08;8.73;;;;;;;;;;10276587;28;20048;-53
2022/03/10 23:02:54;;;;;;;14.55;9.32;;;;;;;;;;10236420;28;20084;-52
2022/03/10 23:07:54;;;;;;;34.65;19.50;;;;;;;;;;10235626;28;20515;-52
2022/03/10 23:12:52;;;;;;;23.92;12.43;;;;;;;;;;10235593;28;20072;-56
2022/03/10 23:17:50;;;;;;;17.95;10.80;;;;;;;;;;10234814;28;20073;-54
2022/03/10 23:22:48;;;;;;;20.20;11.98;;;;;;;;;;10234583;28;20075;-54
2022/03/10 23:27:48;;;;;;;21.55;9.07;;;;;;;;;;10234145;28;20057;-53
2022/03/10 23:32:46;;;;;;;17.40;9.93;;;;;;;;;;10234901;28;20073;-51
2022/03/10 23:37:47;;;;;;;16.48;7.65;;;;;;;;;;10231909;28;20053;-49
2022/03/10 23:42:45;;;;;;;17.05;11.00;;;;;;;;;;10231695;28;20045;-53
2022/03/10 23:47:48;;;;;;;19.63;8.63;;;;;;;;;;10232813;28;20049;-52
2022/03/10 23:52:48;;;;;;;23.58;13.60;;;;;;;;;;10233033;28;20077;-53
2022/03/10 23:57:49;;;;;;;16.95;9.77;;;;;;;;;;10256885;28;20069;-48
